Aérodrome :
LOGIN :

S'inscrire | Disclaimer

   EN    FR    IT 

 










Légende :    VFR   VFR Marginal   IFR   IFR Intensif   IFR Très Intensif
Visi : 
Plafond : 
>= 8 km
>= 3000ft
5 à 8 km
1000 à 3000 ft
1500m à 5 km
500 à 1000 ft
800 à 1500m
200 à 500 ft
< 800m
< 200 ft
Symboles :   Orages  Brouillard  Fortes neiges  Fortes précipitations  Vent > 20 kt
SIGMETs :   Divers  Orages  Givrage  Turbulence  Onde Orograph.  Cendres Volcan.






- Altitude de l'aérodrome : 26 ft
- Code IATA : GAE


DTTG - Matmata

DERNIER METAR :
  • 260300Z 20004KT 5000 FEW020 11/10 Q1020 NOSIG

METARs EXPIRÉS :
  • 260200Z 21002KT 5000 FEW020 11/10 Q1020 NOSIG
  • 260100Z 19006KT 5000 FEW020 11/10 Q1021 NOSIG

TAF TAF DTTG
Valide du 26 à 01h jusqu'au 26 à 10h UTC


260000Z 2601/2610 19006KT 5000 SCT020
PROB30 2601/2608 4000 BR



MET'MAP, la Météo Aéronautique d'un coup d'oeil ! - Copyright ORBIFLY Décembre 2007 - Disclaimer

ORBIFLY MET'MAP TEAM :

Programmation & Développement : Alexandra Zaïnal
Sur une idée originale de : Baudouin d'Aumeries
Assistance à la programmation : Marc-Olivier Méhu
Soutien technique & logistique : Manuel Goepfert

Contact : metmap@orbifly.com




SOURCES & CREDITS :

   NOAA